Mindoro — SVAS8 — position and weather

sailwx.info

Track history (hours):
 
Tides and Currents Weather Stations Pressure Air Temp Water Temp Dewpoint Dewpoint Depression Visibility Wind Speed Wind Dir Waves Ship Positions

Mindoro

Last reported at 2017-Jan-19 09:33 UTC. Time now 2017-Jan-20 09:58 UTC.
Position N 37°25' E 007°23'.

Length 245 m; draft 8.7 m.

Type: Ship (hazmat cat B). MMSI: 240924000.

Date/timePositionNaut miles runAvg speedWind from/ knotsBaromVisibWave heightAir tempDewpointWater temp
2017-Jan-19 09:33N 37°25' E 007°23'1514.7
2017-Jan-19 08:33N 37°23' E 007°05'59413.1
2017-Jan-17 11:17N 36°05' W 005°09'811.2
2017-Jan-17 10:33N 36°04' W 005°20'2 2.3
2017-Jan-17 09:33N 36°05' W 005°22'1 0.9
2017-Jan-17 08:33N 36°05' W 005°23'2 2.1
2017-Jan-17 07:33N 36°03' W 005°23'5 5.5
2017-Jan-17 06:33N 35°58' W 005°27'8 7.4
2017-Jan-17 05:29N 35°55' W 005°36'1010.4
2017-Jan-17 04:32N 35°54' W 005°48'1210.8
2017-Jan-17 03:25N 35°53' W 006°03'1011.0
2017-Jan-17 02:31N 35°54' W 006°15'19710.9
2017-Jan-16 08:28N 37°34' W 009°46'1212.8
2017-Jan-16 07:33N 37°45' W 009°50'3912.9
2017-Jan-16 04:32N 38°23' W 010°01'1312.8
2017-Jan-16 03:33N 38°35' W 010°05'1312.7
2017-Jan-16 02:33N 38°48' W 010°07'1212.4
2017-Jan-16 01:33N 39°00' W 010°07'1312.7
2017-Jan-16 00:33N 39°13' W 010°08'  
2017-Jan-13 07:33N 50°07' W 002°00'7 6.8
2017-Jan-13 06:33N 50°09' W 001°50'9 9.0
2017-Jan-13 05:33N 50°12' W 001°37'1212.0
2017-Jan-13 04:33N 50°16' W 001°19'4113.7
2017-Jan-13 01:33N 50°27' W 000°17'1212.0
2017-Jan-13 00:33N 50°31' E 000°01'1111.1
2017-Jan-12 23:33N 50°33' E 000°18'1010.0
2017-Jan-12 22:33N 50°36' E 000°33'10 9.5
2017-Jan-12 21:33N 50°41' E 000°46'1110.6
2017-Jan-12 20:30N 50°46' E 001°01'1213.1
2017-Jan-12 19:33N 50°54' E 001°17'1515.0
2017-Jan-12 18:33N 51°05' E 001°33'1313.3
2017-Jan-12 17:33N 51°15' E 001°47'1212.0
2017-Jan-12 16:33N 51°26' E 001°56'1111.2
2017-Jan-12 15:33N 51°35' E 002°06'34 8.2
2017-Jan-12 11:25N 52°08' E 002°16'5 0.1
2017-Jan-10 08:33N 52°10' E 002°08'39 5.4
2017-Jan-10 01:25N 51°32' E 002°18'8 9.2
2017-Jan-10 00:33N 51°25' E 002°12'9 9.3
2017-Jan-09 23:33N 51°16' E 002°06'2525.1
2017-Jan-09 22:33N 50°60' E 001°36'4 3.7
2017-Jan-09 21:32N 50°57' E 001°32'4 4.2
2017-Jan-09 20:33N 50°53' E 001°28'55 8.6
2017-Jan-09 14:12N 50°21' E 000°19'5 8.2
2017-Jan-09 13:33N 50°19' E 000°11'8 7.8
2017-Jan-09 12:33N 50°15' E 000°00'8 8.0
2017-Jan-09 11:33N 50°08' W 000°03'8 8.2
2017-Jan-09 10:33N 49°60' W 000°06'  
Track history (hours):
 
Tides and Currents Weather Stations Pressure Air Temp Water Temp Dewpoint Dewpoint Depression Visibility Wind Speed Wind Dir Waves Ship Positions

Mindoro

Last reported at 2017-Jan-19 09:33 UTC. Time now 2017-Jan-20 09:58 UTC.
Position N 37°25' E 007°23'.

Length 245 m; draft 8.7 m.

Type: Ship (hazmat cat B). MMSI: 240924000.

Date/timePositionNaut miles runAvg speedWind from/ knotsBaromVisibWave heightAir tempDewpointWater temp
2017-Jan-19 09:33N 37°25' E 007°23'1514.7
2017-Jan-19 08:33N 37°23' E 007°05'59413.1
2017-Jan-17 11:17N 36°05' W 005°09'811.2
2017-Jan-17 10:33N 36°04' W 005°20'2 2.3
2017-Jan-17 09:33N 36°05' W 005°22'1 0.9
2017-Jan-17 08:33N 36°05' W 005°23'2 2.1
2017-Jan-17 07:33N 36°03' W 005°23'5 5.5
2017-Jan-17 06:33N 35°58' W 005°27'8 7.4
2017-Jan-17 05:29N 35°55' W 005°36'1010.4
2017-Jan-17 04:32N 35°54' W 005°48'1210.8
2017-Jan-17 03:25N 35°53' W 006°03'1011.0
2017-Jan-17 02:31N 35°54' W 006°15'19710.9
2017-Jan-16 08:28N 37°34' W 009°46'1212.8
2017-Jan-16 07:33N 37°45' W 009°50'3912.9
2017-Jan-16 04:32N 38°23' W 010°01'1312.8
2017-Jan-16 03:33N 38°35' W 010°05'1312.7
2017-Jan-16 02:33N 38°48' W 010°07'1212.4
2017-Jan-16 01:33N 39°00' W 010°07'1312.7
2017-Jan-16 00:33N 39°13' W 010°08'  
2017-Jan-13 07:33N 50°07' W 002°00'7 6.8
2017-Jan-13 06:33N 50°09' W 001°50'9 9.0
2017-Jan-13 05:33N 50°12' W 001°37'1212.0
2017-Jan-13 04:33N 50°16' W 001°19'4113.7
2017-Jan-13 01:33N 50°27' W 000°17'1212.0
2017-Jan-13 00:33N 50°31' E 000°01'1111.1
2017-Jan-12 23:33N 50°33' E 000°18'1010.0
2017-Jan-12 22:33N 50°36' E 000°33'10 9.5
2017-Jan-12 21:33N 50°41' E 000°46'1110.6
2017-Jan-12 20:30N 50°46' E 001°01'1213.1
2017-Jan-12 19:33N 50°54' E 001°17'1515.0
2017-Jan-12 18:33N 51°05' E 001°33'1313.3
2017-Jan-12 17:33N 51°15' E 001°47'1212.0
2017-Jan-12 16:33N 51°26' E 001°56'1111.2
2017-Jan-12 15:33N 51°35' E 002°06'34 8.2
2017-Jan-12 11:25N 52°08' E 002°16'5 0.1
2017-Jan-10 08:33N 52°10' E 002°08'39 5.4
2017-Jan-10 01:25N 51°32' E 002°18'8 9.2
2017-Jan-10 00:33N 51°25' E 002°12'9 9.3
2017-Jan-09 23:33N 51°16' E 002°06'2525.1
2017-Jan-09 22:33N 50°60' E 001°36'4 3.7
2017-Jan-09 21:32N 50°57' E 001°32'4 4.2
2017-Jan-09 20:33N 50°53' E 001°28'55 8.6
2017-Jan-09 14:12N 50°21' E 000°19'5 8.2
2017-Jan-09 13:33N 50°19' E 000°11'8 7.8
2017-Jan-09 12:33N 50°15' E 000°00'8 8.0
2017-Jan-09 11:33N 50°08' W 000°03'8 8.2
2017-Jan-09 10:33N 49°60' W 000°06'  

Dump ship's entire track history